sensor_id;sensor_type;location;lat;lon;timestamp;temperature;humidity
30764;DHT22;17497;51.476;7.770;2023-05-29T00:01:27;14.40;99.90
30764;DHT22;17497;51.476;7.770;2023-05-29T00:23:21;13.80;99.90
30764;DHT22;17497;51.476;7.770;2023-05-29T00:30:02;13.70;99.90
30764;DHT22;17497;51.476;7.770;2023-05-29T00:39:40;13.60;99.90
30764;DHT22;17497;51.476;7.770;2023-05-29T00:42:52;13.60;99.90
30764;DHT22;17497;51.476;7.770;2023-05-29T00:46:03;13.60;99.90
30764;DHT22;17497;51.476;7.770;2023-05-29T00:49:16;13.60;99.90
30764;DHT22;17497;51.476;7.770;2023-05-29T01:02:55;13.20;99.90
30764;DHT22;17497;51.476;7.770;2023-05-29T01:05:43;13.20;99.90
30764;DHT22;17497;51.476;7.770;2023-05-29T01:09:02;13.20;99.90
30764;DHT22;17497;51.476;7.770;2023-05-29T01:18:44;12.90;99.90
30764;DHT22;17497;51.476;7.770;2023-05-29T01:27:28;12.90;99.90
30764;DHT22;17497;51.476;7.770;2023-05-29T01:30:17;12.90;99.90
30764;DHT22;17497;51.476;7.770;2023-05-29T01:32:51;12.80;99.90
30764;DHT22;17497;51.476;7.770;2023-05-29T01:35:59;12.80;99.90
30764;DHT22;17497;51.476;7.770;2023-05-29T01:38:34;12.80;99.90
30764;DHT22;17497;51.476;7.770;2023-05-29T01:41:01;12.80;99.90
30764;DHT22;17497;51.476;7.770;2023-05-29T01:43:32;12.80;99.90
30764;DHT22;17497;51.476;7.770;2023-05-29T01:45:59;12.70;99.90
30764;DHT22;17497;51.476;7.770;2023-05-29T01:48:27;12.60;99.90
30764;DHT22;17497;51.476;7.770;2023-05-29T01:50:54;12.60;99.90
30764;DHT22;17497;51.476;7.770;2023-05-29T01:53:21;12.50;99.90
30764;DHT22;17497;51.476;7.770;2023-05-29T01:55:50;12.50;99.90
30764;DHT22;17497;51.476;7.770;2023-05-29T01:58:20;12.40;99.90
30764;DHT22;17497;51.476;7.770;2023-05-29T02:00:48;12.40;99.90
30764;DHT22;17497;51.476;7.770;2023-05-29T02:03:15;12.30;99.90
30764;DHT22;17497;51.476;7.770;2023-05-29T02:05:42;12.30;99.90
30764;DHT22;17497;51.476;7.770;2023-05-29T02:08:27;12.30;99.90
30764;DHT22;17497;51.476;7.770;2023-05-29T02:11:30;12.30;99.90
30764;DHT22;17497;51.476;7.770;2023-05-29T02:15:07;12.20;99.90
30764;DHT22;17497;51.476;7.770;2023-05-29T02:18:21;12.20;99.90
30764;DHT22;17497;51.476;7.770;2023-05-29T02:22:23;12.20;99.90
30764;DHT22;17497;51.476;7.770;2023-05-29T02:25:33;12.20;99.90
30764;DHT22;17497;51.476;7.770;2023-05-29T02:29:06;12.20;99.90
30764;DHT22;17497;51.476;7.770;2023-05-29T02:36:34;12.00;99.90
30764;DHT22;17497;51.476;7.770;2023-05-29T02:43:35;12.00;99.90
30764;DHT22;17497;51.476;7.770;2023-05-29T02:54:18;12.00;99.90
30764;DHT22;17497;51.476;7.770;2023-05-29T03:00:16;11.90;99.90
30764;DHT22;17497;51.476;7.770;2023-05-29T03:03:07;11.90;99.90
30764;DHT22;17497;51.476;7.770;2023-05-29T03:05:37;11.90;99.90
30764;DHT22;17497;51.476;7.770;2023-05-29T03:08:14;11.80;99.90
30764;DHT22;17497;51.476;7.770;2023-05-29T03:10:46;11.80;99.90
30764;DHT22;17497;51.476;7.770;2023-05-29T03:13:33;11.80;99.90
30764;DHT22;17497;51.476;7.770;2023-05-29T03:16:04;11.90;99.90
30764;DHT22;17497;51.476;7.770;2023-05-29T03:18:35;11.90;99.90
30764;DHT22;17497;51.476;7.770;2023-05-29T03:21:03;11.80;99.90
30764;DHT22;17497;51.476;7.770;2023-05-29T03:23:35;11.80;99.90
30764;DHT22;17497;51.476;7.770;2023-05-29T03:26:05;11.80;99.90
30764;DHT22;17497;51.476;7.770;2023-05-29T03:28:34;11.80;99.90
30764;DHT22;17497;51.476;7.770;2023-05-29T03:31:04;11.80;99.90
30764;DHT22;17497;51.476;7.770;2023-05-29T03:33:37;11.80;99.90
30764;DHT22;17497;51.476;7.770;2023-05-29T03:36:04;11.80;99.90
30764;DHT22;17497;51.476;7.770;2023-05-29T03:38:34;11.80;99.90
30764;DHT22;17497;51.476;7.770;2023-05-29T03:41:01;11.80;99.90
30764;DHT22;17497;51.476;7.770;2023-05-29T03:43:31;11.80;99.90
30764;DHT22;17497;51.476;7.770;2023-05-29T03:46:04;11.70;99.90
30764;DHT22;17497;51.476;7.770;2023-05-29T03:48:35;11.80;99.90
30764;DHT22;17497;51.476;7.770;2023-05-29T03:51:02;11.80;99.90
30764;DHT22;17497;51.476;7.770;2023-05-29T03:53:29;11.80;99.90
30764;DHT22;17497;51.476;7.770;2023-05-29T03:55:59;11.80;99.90
30764;DHT22;17497;51.476;7.770;2023-05-29T03:58:33;11.80;99.90
30764;DHT22;17497;51.476;7.770;2023-05-29T04:01:06;11.80;99.90
30764;DHT22;17497;51.476;7.770;2023-05-29T04:03:33;11.80;99.90
30764;DHT22;17497;51.476;7.770;2023-05-29T04:06:02;11.80;99.90
30764;DHT22;17497;51.476;7.770;2023-05-29T04:08:34;11.70;99.90
30764;DHT22;17497;51.476;7.770;2023-05-29T04:11:04;11.70;99.90
30764;DHT22;17497;51.476;7.770;2023-05-29T04:13:32;11.70;99.90
30764;DHT22;17497;51.476;7.770;2023-05-29T04:15:59;11.70;99.90
30764;DHT22;17497;51.476;7.770;2023-05-29T04:18:29;11.70;99.90
30764;DHT22;17497;51.476;7.770;2023-05-29T04:20:56;11.70;99.90
30764;DHT22;17497;51.476;7.770;2023-05-29T04:23:23;11.60;99.90
30764;DHT22;17497;51.476;7.770;2023-05-29T04:25:50;11.70;99.90
30764;DHT22;17497;51.476;7.770;2023-05-29T04:28:18;11.70;99.90
30764;DHT22;17497;51.476;7.770;2023-05-29T04:30:48;11.70;99.90
30764;DHT22;17497;51.476;7.770;2023-05-29T04:33:17;11.70;99.90
30764;DHT22;17497;51.476;7.770;2023-05-29T04:35:47;11.70;99.90
30764;DHT22;17497;51.476;7.770;2023-05-29T04:38:15;11.70;99.90
30764;DHT22;17497;51.476;7.770;2023-05-29T04:40:42;11.70;99.90
30764;DHT22;17497;51.476;7.770;2023-05-29T04:43:11;11.80;99.90
30764;DHT22;17497;51.476;7.770;2023-05-29T04:45:38;11.80;99.90
30764;DHT22;17497;51.476;7.770;2023-05-29T04:48:04;11.80;99.90
30764;DHT22;17497;51.476;7.770;2023-05-29T04:50:31;11.80;99.90
30764;DHT22;17497;51.476;7.770;2023-05-29T04:52:58;11.80;99.90
30764;DHT22;17497;51.476;7.770;2023-05-29T04:55:26;11.90;99.90
30764;DHT22;17497;51.476;7.770;2023-05-29T04:57:53;11.90;99.90
30764;DHT22;17497;51.476;7.770;2023-05-29T05:00:20;11.90;99.90
30764;DHT22;17497;51.476;7.770;2023-05-29T05:02:49;12.00;99.90
30764;DHT22;17497;51.476;7.770;2023-05-29T05:05:17;12.00;99.90
30764;DHT22;17497;51.476;7.770;2023-05-29T05:07:44;12.00;99.90
30764;DHT22;17497;51.476;7.770;2023-05-29T05:10:11;12.00;99.90
30764;DHT22;17497;51.476;7.770;2023-05-29T05:12:38;11.90;99.90
30764;DHT22;17497;51.476;7.770;2023-05-29T05:15:05;12.00;99.90
30764;DHT22;17497;51.476;7.770;2023-05-29T05:17:32;12.00;99.90
30764;DHT22;17497;51.476;7.770;2023-05-29T05:19:59;12.00;99.90
30764;DHT22;17497;51.476;7.770;2023-05-29T05:22:26;12.00;99.90
30764;DHT22;17497;51.476;7.770;2023-05-29T05:24:53;11.90;99.90
30764;DHT22;17497;51.476;7.770;2023-05-29T05:27:21;12.00;99.90
30764;DHT22;17497;51.476;7.770;2023-05-29T05:29:47;12.00;99.90
30764;DHT22;17497;51.476;7.770;2023-05-29T05:32:14;12.00;99.90
30764;DHT22;17497;51.476;7.770;2023-05-29T05:34:41;12.10;99.90
30764;DHT22;17497;51.476;7.770;2023-05-29T05:37:08;12.10;99.90
30764;DHT22;17497;51.476;7.770;2023-05-29T05:39:36;12.20;99.90
30764;DHT22;17497;51.476;7.770;2023-05-29T05:42:03;12.20;99.90
30764;DHT22;17497;51.476;7.770;2023-05-29T05:44:30;12.30;99.90
30764;DHT22;17497;51.476;7.770;2023-05-29T05:46:57;12.20;99.90
30764;DHT22;17497;51.476;7.770;2023-05-29T05:49:24;12.20;99.90
30764;DHT22;17497;51.476;7.770;2023-05-29T05:51:51;12.30;99.90
30764;DHT22;17497;51.476;7.770;2023-05-29T05:54:17;12.20;99.90
30764;DHT22;17497;51.476;7.770;2023-05-29T05:56:44;12.20;99.90
30764;DHT22;17497;51.476;7.770;2023-05-29T05:59:11;12.20;99.90
30764;DHT22;17497;51.476;7.770;2023-05-29T06:01:38;12.20;99.90
30764;DHT22;17497;51.476;7.770;2023-05-29T06:04:05;12.20;99.90
30764;DHT22;17497;51.476;7.770;2023-05-29T06:06:32;12.20;99.90
30764;DHT22;17497;51.476;7.770;2023-05-29T06:08:59;12.20;99.90
30764;DHT22;17497;51.476;7.770;2023-05-29T06:11:26;12.20;99.90
30764;DHT22;17497;51.476;7.770;2023-05-29T06:13:53;12.30;99.90
30764;DHT22;17497;51.476;7.770;2023-05-29T06:16:20;12.30;99.90
30764;DHT22;17497;51.476;7.770;2023-05-29T06:18:47;12.40;99.90
30764;DHT22;17497;51.476;7.770;2023-05-29T06:21:14;12.50;99.90
30764;DHT22;17497;51.476;7.770;2023-05-29T06:23:41;12.60;99.90
30764;DHT22;17497;51.476;7.770;2023-05-29T06:26:08;12.70;99.90
30764;DHT22;17497;51.476;7.770;2023-05-29T06:28:35;12.70;99.90
30764;DHT22;17497;51.476;7.770;2023-05-29T06:31:02;12.90;99.90
30764;DHT22;17497;51.476;7.770;2023-05-29T06:33:29;13.00;99.90
30764;DHT22;17497;51.476;7.770;2023-05-29T06:35:56;13.00;99.90
30764;DHT22;17497;51.476;7.770;2023-05-29T06:38:23;13.10;99.90
30764;DHT22;17497;51.476;7.770;2023-05-29T06:40:50;13.20;99.90
30764;DHT22;17497;51.476;7.770;2023-05-29T06:43:16;13.20;99.90
30764;DHT22;17497;51.476;7.770;2023-05-29T06:45:43;13.20;99.90
30764;DHT22;17497;51.476;7.770;2023-05-29T06:48:10;13.30;99.90
30764;DHT22;17497;51.476;7.770;2023-05-29T06:50:37;13.30;99.90
30764;DHT22;17497;51.476;7.770;2023-05-29T06:53:04;13.40;99.90
30764;DHT22;17497;51.476;7.770;2023-05-29T06:55:31;13.40;99.90
30764;DHT22;17497;51.476;7.770;2023-05-29T06:58:01;13.40;99.90
30764;DHT22;17497;51.476;7.770;2023-05-29T07:00:33;13.50;99.90
30764;DHT22;17497;51.476;7.770;2023-05-29T07:03:00;13.50;99.90
30764;DHT22;17497;51.476;7.770;2023-05-29T07:05:27;13.70;99.90
30764;DHT22;17497;51.476;7.770;2023-05-29T07:07:57;13.70;99.90
30764;DHT22;17497;51.476;7.770;2023-05-29T07:10:24;13.70;99.90
30764;DHT22;17497;51.476;7.770;2023-05-29T07:12:51;13.70;99.90
30764;DHT22;17497;51.476;7.770;2023-05-29T07:15:18;13.70;99.90
30764;DHT22;17497;51.476;7.770;2023-05-29T07:17:45;13.80;99.90
30764;DHT22;17497;51.476;7.770;2023-05-29T07:20:12;13.80;99.90
30764;DHT22;17497;51.476;7.770;2023-05-29T07:22:39;13.80;99.90
30764;DHT22;17497;51.476;7.770;2023-05-29T07:25:06;13.80;99.90
30764;DHT22;17497;51.476;7.770;2023-05-29T07:27:33;13.80;99.90
30764;DHT22;17497;51.476;7.770;2023-05-29T07:30:03;13.90;99.90
30764;DHT22;17497;51.476;7.770;2023-05-29T07:32:32;14.00;99.90
30764;DHT22;17497;51.476;7.770;2023-05-29T07:34:59;14.00;99.90
30764;DHT22;17497;51.476;7.770;2023-05-29T07:37:26;14.00;99.90
30764;DHT22;17497;51.476;7.770;2023-05-29T07:39:52;14.00;99.90
30764;DHT22;17497;51.476;7.770;2023-05-29T07:42:19;14.00;99.90
30764;DHT22;17497;51.476;7.770;2023-05-29T07:44:48;14.10;99.90
30764;DHT22;17497;51.476;7.770;2023-05-29T07:47:15;14.10;99.90
30764;DHT22;17497;51.476;7.770;2023-05-29T07:49:45;14.20;99.90
30764;DHT22;17497;51.476;7.770;2023-05-29T07:52:17;14.20;99.90
30764;DHT22;17497;51.476;7.770;2023-05-29T07:54:44;14.30;99.90
30764;DHT22;17497;51.476;7.770;2023-05-29T07:57:10;14.30;99.90
30764;DHT22;17497;51.476;7.770;2023-05-29T07:59:41;14.40;99.90
30764;DHT22;17497;51.476;7.770;2023-05-29T08:02:10;14.40;99.90
30764;DHT22;17497;51.476;7.770;2023-05-29T08:04:38;14.40;99.90
30764;DHT22;17497;51.476;7.770;2023-05-29T08:07:05;14.50;99.90
30764;DHT22;17497;51.476;7.770;2023-05-29T08:09:32;14.60;99.90
30764;DHT22;17497;51.476;7.770;2023-05-29T08:11:59;14.70;99.90
30764;DHT22;17497;51.476;7.770;2023-05-29T08:14:28;14.80;99.90
30764;DHT22;17497;51.476;7.770;2023-05-29T08:16:55;15.00;99.90
30764;DHT22;17497;51.476;7.770;2023-05-29T08:19:23;15.00;99.90
30764;DHT22;17497;51.476;7.770;2023-05-29T08:21:50;15.10;99.90
30764;DHT22;17497;51.476;7.770;2023-05-29T08:24:17;15.10;99.90
30764;DHT22;17497;51.476;7.770;2023-05-29T08:26:44;15.20;99.90
30764;DHT22;17497;51.476;7.770;2023-05-29T08:29:10;15.30;99.90
30764;DHT22;17497;51.476;7.770;2023-05-29T08:31:38;15.30;99.90
30764;DHT22;17497;51.476;7.770;2023-05-29T08:34:06;15.40;99.90
30764;DHT22;17497;51.476;7.770;2023-05-29T08:36:33;15.50;99.90
30764;DHT22;17497;51.476;7.770;2023-05-29T08:39:00;15.50;99.90
30764;DHT22;17497;51.476;7.770;2023-05-29T08:42:01;15.60;99.90
30764;DHT22;17497;51.476;7.770;2023-05-29T08:44:35;15.70;99.90
30764;DHT22;17497;51.476;7.770;2023-05-29T08:47:07;15.80;99.90
30764;DHT22;17497;51.476;7.770;2023-05-29T08:49:42;15.90;99.90
30764;DHT22;17497;51.476;7.770;2023-05-29T08:52:19;16.00;99.90
30764;DHT22;17497;51.476;7.770;2023-05-29T08:54:54;16.10;99.90
30764;DHT22;17497;51.476;7.770;2023-05-29T08:57:22;16.10;99.90
30764;DHT22;17497;51.476;7.770;2023-05-29T08:59:51;16.20;99.90
30764;DHT22;17497;51.476;7.770;2023-05-29T09:02:19;16.30;99.90
30764;DHT22;17497;51.476;7.770;2023-05-29T09:04:46;16.40;99.90
30764;DHT22;17497;51.476;7.770;2023-05-29T09:07:19;16.50;99.90
30764;DHT22;17497;51.476;7.770;2023-05-29T09:09:47;16.60;99.90
30764;DHT22;17497;51.476;7.770;2023-05-29T09:12:15;16.70;99.90
30764;DHT22;17497;51.476;7.770;2023-05-29T09:14:42;16.90;99.90
30764;DHT22;17497;51.476;7.770;2023-05-29T09:17:12;17.00;99.90
30764;DHT22;17497;51.476;7.770;2023-05-29T09:19:39;17.20;99.90
30764;DHT22;17497;51.476;7.770;2023-05-29T09:22:10;17.20;99.90
30764;DHT22;17497;51.476;7.770;2023-05-29T09:24:38;17.20;99.90
30764;DHT22;17497;51.476;7.770;2023-05-29T09:27:06;17.30;99.90
30764;DHT22;17497;51.476;7.770;2023-05-29T09:29:42;17.40;99.90
30764;DHT22;17497;51.476;7.770;2023-05-29T09:32:11;17.50;99.90
30764;DHT22;17497;51.476;7.770;2023-05-29T09:34:39;17.60;99.90
30764;DHT22;17497;51.476;7.770;2023-05-29T09:37:07;17.70;99.90
30764;DHT22;17497;51.476;7.770;2023-05-29T09:39:46;17.60;99.90
30764;DHT22;17497;51.476;7.770;2023-05-29T09:42:14;17.20;99.90
30764;DHT22;17497;51.476;7.770;2023-05-29T09:44:49;17.30;99.90
30764;DHT22;17497;51.476;7.770;2023-05-29T09:47:20;17.60;99.90
30764;DHT22;17497;51.476;7.770;2023-05-29T09:49:47;17.80;99.90
30764;DHT22;17497;51.476;7.770;2023-05-29T09:52:15;18.00;99.90
30764;DHT22;17497;51.476;7.770;2023-05-29T09:54:47;18.10;99.90
30764;DHT22;17497;51.476;7.770;2023-05-29T09:57:16;18.20;99.90
30764;DHT22;17497;51.476;7.770;2023-05-29T09:59:44;18.30;99.90
30764;DHT22;17497;51.476;7.770;2023-05-29T10:02:20;18.50;99.90
30764;DHT22;17497;51.476;7.770;2023-05-29T10:04:49;18.70;99.90
30764;DHT22;17497;51.476;7.770;2023-05-29T10:09:58;19.20;99.90
30764;DHT22;17497;51.476;7.770;2023-05-29T10:12:48;19.30;99.90
30764;DHT22;17497;51.476;7.770;2023-05-29T10:15:16;19.30;99.90
30764;DHT22;17497;51.476;7.770;2023-05-29T10:18:07;19.30;99.90
30764;DHT22;17497;51.476;7.770;2023-05-29T10:20:41;19.30;99.90
30764;DHT22;17497;51.476;7.770;2023-05-29T10:23:09;19.50;99.90
30764;DHT22;17497;51.476;7.770;2023-05-29T10:25:41;19.80;99.90
30764;DHT22;17497;51.476;7.770;2023-05-29T10:28:10;20.00;99.90
30764;DHT22;17497;51.476;7.770;2023-05-29T10:30:41;20.20;99.90
30764;DHT22;17497;51.476;7.770;2023-05-29T10:36:12;20.50;99.90
30764;DHT22;17497;51.476;7.770;2023-05-29T10:38:41;20.80;99.90
30764;DHT22;17497;51.476;7.770;2023-05-29T10:41:29;21.10;99.90
30764;DHT22;17497;51.476;7.770;2023-05-29T10:43:59;21.40;99.90
30764;DHT22;17497;51.476;7.770;2023-05-29T10:49:19;21.60;99.90
30764;DHT22;17497;51.476;7.770;2023-05-29T10:51:47;22.00;99.90
30764;DHT22;17497;51.476;7.770;2023-05-29T10:54:15;22.40;99.90
30764;DHT22;17497;51.476;7.770;2023-05-29T10:56:56;22.60;99.90
30764;DHT22;17497;51.476;7.770;2023-05-29T10:59:23;22.90;99.90
30764;DHT22;17497;51.476;7.770;2023-05-29T11:01:59;23.20;99.90
30764;DHT22;17497;51.476;7.770;2023-05-29T11:04:30;23.50;99.80
30764;DHT22;17497;51.476;7.770;2023-05-29T11:06:59;23.80;97.70
30764;DHT22;17497;51.476;7.770;2023-05-29T11:09:27;24.10;97.00
30764;DHT22;17497;51.476;7.770;2023-05-29T11:15:00;24.70;94.60
30764;DHT22;17497;51.476;7.770;2023-05-29T11:20:07;25.10;92.10
30764;DHT22;17497;51.476;7.770;2023-05-29T11:25:13;25.80;92.50
30764;DHT22;17497;51.476;7.770;2023-05-29T11:27:43;25.90;90.40
30764;DHT22;17497;51.476;7.770;2023-05-29T11:30:13;26.40;89.40
30764;DHT22;17497;51.476;7.770;2023-05-29T11:32:41;27.00;85.20
30764;DHT22;17497;51.476;7.770;2023-05-29T11:35:12;27.30;86.80
30764;DHT22;17497;51.476;7.770;2023-05-29T11:37:43;27.50;84.10
30764;DHT22;17497;51.476;7.770;2023-05-29T11:40:15;27.70;80.50
30764;DHT22;17497;51.476;7.770;2023-05-29T11:42:43;27.60;79.80
30764;DHT22;17497;51.476;7.770;2023-05-29T11:45:20;27.70;76.70
30764;DHT22;17497;51.476;7.770;2023-05-29T11:47:59;28.00;74.50
30764;DHT22;17497;51.476;7.770;2023-05-29T11:50:27;28.30;74.80
30764;DHT22;17497;51.476;7.770;2023-05-29T11:52:56;28.70;74.40
30764;DHT22;17497;51.476;7.770;2023-05-29T11:55:23;29.00;68.90
30764;DHT22;17497;51.476;7.770;2023-05-29T11:57:55;29.10;67.70
30764;DHT22;17497;51.476;7.770;2023-05-29T12:00:22;29.20;68.60
30764;DHT22;17497;51.476;7.770;2023-05-29T12:02:50;28.90;70.00
30764;DHT22;17497;51.476;7.770;2023-05-29T12:05:18;28.40;68.80
30764;DHT22;17497;51.476;7.770;2023-05-29T12:07:54;28.60;75.70
30764;DHT22;17497;51.476;7.770;2023-05-29T12:10:23;29.20;66.40
30764;DHT22;17497;51.476;7.770;2023-05-29T12:12:58;29.80;65.80
30764;DHT22;17497;51.476;7.770;2023-05-29T12:15:28;29.80;63.90
30764;DHT22;17497;51.476;7.770;2023-05-29T12:17:55;29.80;64.50
30764;DHT22;17497;51.476;7.770;2023-05-29T12:20:24;29.20;63.80
30764;DHT22;17497;51.476;7.770;2023-05-29T12:22:59;29.80;61.60
30764;DHT22;17497;51.476;7.770;2023-05-29T12:25:27;29.80;61.10
30764;DHT22;17497;51.476;7.770;2023-05-29T12:27:58;29.70;59.50
30764;DHT22;17497;51.476;7.770;2023-05-29T12:30:25;29.80;59.80
30764;DHT22;17497;51.476;7.770;2023-05-29T12:32:56;29.80;58.80
30764;DHT22;17497;51.476;7.770;2023-05-29T12:35:25;30.00;57.80
30764;DHT22;17497;51.476;7.770;2023-05-29T12:37:57;30.20;59.40
30764;DHT22;17497;51.476;7.770;2023-05-29T12:40:28;30.40;59.30
30764;DHT22;17497;51.476;7.770;2023-05-29T12:43:00;30.30;57.80
30764;DHT22;17497;51.476;7.770;2023-05-29T12:45:29;30.50;56.20
30764;DHT22;17497;51.476;7.770;2023-05-29T12:47:58;30.20;55.20
30764;DHT22;17497;51.476;7.770;2023-05-29T12:50:35;30.00;54.20
30764;DHT22;17497;51.476;7.770;2023-05-29T12:53:08;29.90;57.70
30764;DHT22;17497;51.476;7.770;2023-05-29T12:55:37;29.60;60.00
30764;DHT22;17497;51.476;7.770;2023-05-29T12:58:06;29.90;56.40
30764;DHT22;17497;51.476;7.770;2023-05-29T13:00:38;30.10;55.60
30764;DHT22;17497;51.476;7.770;2023-05-29T13:03:05;30.20;54.90
30764;DHT22;17497;51.476;7.770;2023-05-29T13:05:39;30.10;57.50
30764;DHT22;17497;51.476;7.770;2023-05-29T13:08:06;29.80;58.30
30764;DHT22;17497;51.476;7.770;2023-05-29T13:10:35;29.90;57.40
30764;DHT22;17497;51.476;7.770;2023-05-29T13:13:02;30.20;54.60
30764;DHT22;17497;51.476;7.770;2023-05-29T13:15:30;30.50;52.80
30764;DHT22;17497;51.476;7.770;2023-05-29T13:18:00;30.00;54.10
30764;DHT22;17497;51.476;7.770;2023-05-29T13:20:27;29.60;54.90
30764;DHT22;17497;51.476;7.770;2023-05-29T13:22:56;29.30;58.20
30764;DHT22;17497;51.476;7.770;2023-05-29T13:25:23;29.20;58.40
30764;DHT22;17497;51.476;7.770;2023-05-29T13:27:52;29.60;57.30
30764;DHT22;17497;51.476;7.770;2023-05-29T13:30:19;30.00;56.00
30764;DHT22;17497;51.476;7.770;2023-05-29T13:32:46;29.90;55.80
30764;DHT22;17497;51.476;7.770;2023-05-29T13:35:13;30.10;54.50
30764;DHT22;17497;51.476;7.770;2023-05-29T13:37:40;30.30;54.80
30764;DHT22;17497;51.476;7.770;2023-05-29T13:40:08;30.60;52.80
30764;DHT22;17497;51.476;7.770;2023-05-29T13:42:36;30.60;56.50
30764;DHT22;17497;51.476;7.770;2023-05-29T13:45:06;30.40;56.90
30764;DHT22;17497;51.476;7.770;2023-05-29T13:47:34;30.60;53.50
30764;DHT22;17497;51.476;7.770;2023-05-29T13:50:02;30.80;52.20
30764;DHT22;17497;51.476;7.770;2023-05-29T13:52:29;30.10;54.40
30764;DHT22;17497;51.476;7.770;2023-05-29T13:54:56;30.10;55.70
30764;DHT22;17497;51.476;7.770;2023-05-29T13:57:26;29.20;58.20
30764;DHT22;17497;51.476;7.770;2023-05-29T13:59:53;29.40;56.40
30764;DHT22;17497;51.476;7.770;2023-05-29T14:02:19;29.30;57.10
30764;DHT22;17497;51.476;7.770;2023-05-29T14:04:48;29.50;55.30
30764;DHT22;17497;51.476;7.770;2023-05-29T14:07:15;29.80;53.00
30764;DHT22;17497;51.476;7.770;2023-05-29T14:09:42;30.10;52.60
30764;DHT22;17497;51.476;7.770;2023-05-29T14:12:09;30.40;52.60
30764;DHT22;17497;51.476;7.770;2023-05-29T14:14:35;30.50;51.00
30764;DHT22;17497;51.476;7.770;2023-05-29T14:17:03;30.60;51.50
30764;DHT22;17497;51.476;7.770;2023-05-29T14:19:31;30.50;49.70
30764;DHT22;17497;51.476;7.770;2023-05-29T14:21:58;30.50;49.00
30764;DHT22;17497;51.476;7.770;2023-05-29T14:24:27;30.40;49.90
30764;DHT22;17497;51.476;7.770;2023-05-29T14:26:54;30.70;52.00
30764;DHT22;17497;51.476;7.770;2023-05-29T14:29:21;31.10;48.00
30764;DHT22;17497;51.476;7.770;2023-05-29T14:31:48;31.00;47.70
30764;DHT22;17497;51.476;7.770;2023-05-29T14:34:15;30.90;48.60
30764;DHT22;17497;51.476;7.770;2023-05-29T14:36:42;30.80;49.60
30764;DHT22;17497;51.476;7.770;2023-05-29T14:39:11;30.60;48.60
30764;DHT22;17497;51.476;7.770;2023-05-29T14:41:39;30.50;51.60
30764;DHT22;17497;51.476;7.770;2023-05-29T14:44:06;30.40;50.20
30764;DHT22;17497;51.476;7.770;2023-05-29T14:46:33;30.30;50.70
30764;DHT22;17497;51.476;7.770;2023-05-29T14:49:01;30.40;50.00
30764;DHT22;17497;51.476;7.770;2023-05-29T14:51:31;30.60;51.40
30764;DHT22;17497;51.476;7.770;2023-05-29T14:53:58;30.70;48.50
30764;DHT22;17497;51.476;7.770;2023-05-29T14:56:24;30.90;47.50
30764;DHT22;17497;51.476;7.770;2023-05-29T14:58:53;31.20;46.60
30764;DHT22;17497;51.476;7.770;2023-05-29T15:01:23;31.30;49.60
30764;DHT22;17497;51.476;7.770;2023-05-29T15:03:51;31.50;48.20
30764;DHT22;17497;51.476;7.770;2023-05-29T15:06:18;31.60;46.60
30764;DHT22;17497;51.476;7.770;2023-05-29T15:08:45;31.50;47.20
30764;DHT22;17497;51.476;7.770;2023-05-29T15:11:12;31.30;47.70
30764;DHT22;17497;51.476;7.770;2023-05-29T15:13:39;31.10;47.40
30764;DHT22;17497;51.476;7.770;2023-05-29T15:16:07;31.10;49.10
30764;DHT22;17497;51.476;7.770;2023-05-29T15:18:34;31.50;47.90
30764;DHT22;17497;51.476;7.770;2023-05-29T15:21:02;31.90;45.70
30764;DHT22;17497;51.476;7.770;2023-05-29T15:23:30;31.80;45.40
30764;DHT22;17497;51.476;7.770;2023-05-29T15:26:00;31.80;46.40
30764;DHT22;17497;51.476;7.770;2023-05-29T15:28:27;31.90;47.20
30764;DHT22;17497;51.476;7.770;2023-05-29T15:30:54;32.10;45.40
30764;DHT22;17497;51.476;7.770;2023-05-29T15:33:22;32.20;44.20
30764;DHT22;17497;51.476;7.770;2023-05-29T15:35:50;32.20;45.90
30764;DHT22;17497;51.476;7.770;2023-05-29T15:38:18;32.20;45.70
30764;DHT22;17497;51.476;7.770;2023-05-29T15:40:45;32.40;44.80
30764;DHT22;17497;51.476;7.770;2023-05-29T15:43:12;32.50;43.90
30764;DHT22;17497;51.476;7.770;2023-05-29T15:45:39;32.30;44.60
30764;DHT22;17497;51.476;7.770;2023-05-29T15:48:06;32.00;44.70
30764;DHT22;17497;51.476;7.770;2023-05-29T15:50:33;32.10;45.00
30764;DHT22;17497;51.476;7.770;2023-05-29T15:53:00;32.00;44.60
30764;DHT22;17497;51.476;7.770;2023-05-29T15:55:27;32.10;44.00
30764;DHT22;17497;51.476;7.770;2023-05-29T15:57:54;31.90;44.60
30764;DHT22;17497;51.476;7.770;2023-05-29T16:00:21;31.70;44.50
30764;DHT22;17497;51.476;7.770;2023-05-29T16:02:48;31.60;46.20
30764;DHT22;17497;51.476;7.770;2023-05-29T16:05:17;31.60;45.40
30764;DHT22;17497;51.476;7.770;2023-05-29T16:07:44;32.10;46.70
30764;DHT22;17497;51.476;7.770;2023-05-29T16:10:15;32.20;45.30
30764;DHT22;17497;51.476;7.770;2023-05-29T16:12:44;32.50;45.00
30764;DHT22;17497;51.476;7.770;2023-05-29T16:15:12;32.80;42.40
30764;DHT22;17497;51.476;7.770;2023-05-29T16:17:43;32.50;41.00
30764;DHT22;17497;51.476;7.770;2023-05-29T16:20:10;32.20;41.60
30764;DHT22;17497;51.476;7.770;2023-05-29T16:22:38;32.00;42.80
30764;DHT22;17497;51.476;7.770;2023-05-29T16:25:09;31.90;42.50
30764;DHT22;17497;51.476;7.770;2023-05-29T16:27:37;31.80;41.90
30764;DHT22;17497;51.476;7.770;2023-05-29T16:30:08;31.70;43.50
30764;DHT22;17497;51.476;7.770;2023-05-29T16:32:36;31.80;42.00
30764;DHT22;17497;51.476;7.770;2023-05-29T16:35:03;31.70;42.10
30764;DHT22;17497;51.476;7.770;2023-05-29T16:37:30;31.50;41.80
30764;DHT22;17497;51.476;7.770;2023-05-29T16:39:57;31.50;41.20
30764;DHT22;17497;51.476;7.770;2023-05-29T16:42:25;31.20;40.60
30764;DHT22;17497;51.476;7.770;2023-05-29T16:44:51;31.10;40.40
30764;DHT22;17497;51.476;7.770;2023-05-29T16:47:19;31.00;40.00
30764;DHT22;17497;51.476;7.770;2023-05-29T16:49:46;30.70;41.00
30764;DHT22;17497;51.476;7.770;2023-05-29T16:52:14;30.50;39.70
30764;DHT22;17497;51.476;7.770;2023-05-29T16:54:49;30.40;39.10
30764;DHT22;17497;51.476;7.770;2023-05-29T16:57:16;30.30;40.90
30764;DHT22;17497;51.476;7.770;2023-05-29T16:59:46;30.20;40.10
30764;DHT22;17497;51.476;7.770;2023-05-29T17:02:13;29.90;39.60
30764;DHT22;17497;51.476;7.770;2023-05-29T17:04:39;29.40;39.40
30764;DHT22;17497;51.476;7.770;2023-05-29T17:07:07;28.60;40.40
30764;DHT22;17497;51.476;7.770;2023-05-29T17:09:33;27.80;40.80
30764;DHT22;17497;51.476;7.770;2023-05-29T17:12:00;26.80;40.80
30764;DHT22;17497;51.476;7.770;2023-05-29T17:14:28;26.00;42.60
30764;DHT22;17497;51.476;7.770;2023-05-29T17:16:55;25.20;44.50
30764;DHT22;17497;51.476;7.770;2023-05-29T17:19:22;24.50;42.50
30764;DHT22;17497;51.476;7.770;2023-05-29T17:21:49;24.00;44.00
30764;DHT22;17497;51.476;7.770;2023-05-29T17:24:15;23.40;43.90